createdAt,value
2019-02-09T00:08:12.413Z,34.25
2019-02-09T00:10:41.374Z,28.85
2019-02-09T00:13:10.294Z,31.95
2019-02-09T00:15:39.390Z,31.70
2019-02-09T00:18:08.257Z,32.55
2019-02-09T00:20:37.220Z,32.33
2019-02-09T00:23:06.591Z,33.00
2019-02-09T00:25:35.792Z,34.10
2019-02-09T00:28:05.002Z,32.08
2019-02-09T00:30:34.951Z,34.43
2019-02-09T00:33:04.222Z,34.43
2019-02-09T00:35:33.384Z,33.13
2019-02-09T00:38:02.618Z,32.50
2019-02-09T00:40:31.657Z,30.00
2019-02-09T00:43:00.560Z,30.35
2019-02-09T00:45:29.653Z,32.55
2019-02-09T00:47:59.038Z,34.13
2019-02-09T00:50:28.126Z,31.47
2019-02-09T00:52:57.952Z,28.17
2019-02-09T00:55:27.619Z,31.82
2019-02-09T00:57:56.870Z,31.27
2019-02-09T01:00:26.147Z,32.08
2019-02-09T01:02:55.128Z,28.83
2019-02-09T01:05:27.798Z,31.12
2019-02-09T01:07:56.975Z,33.33
2019-02-09T01:10:27.740Z,37.35
2019-02-09T01:12:57.038Z,33.25
2019-02-09T01:15:26.250Z,31.20
2019-02-09T01:17:55.375Z,33.23
2019-02-09T01:20:24.840Z,33.92
2019-02-09T01:22:54.686Z,33.83
2019-02-09T01:25:23.765Z,31.95
2019-02-09T01:27:53.026Z,35.68
2019-02-09T01:30:23.844Z,38.78
2019-02-09T01:32:53.120Z,37.95
2019-02-09T01:35:22.218Z,40.75
2019-02-09T01:37:52.099Z,36.15
2019-02-09T01:40:22.869Z,38.50
2019-02-09T01:42:52.395Z,37.98
2019-02-09T01:45:26.826Z,35.25
2019-02-09T01:47:56.830Z,34.48
2019-02-09T01:50:26.878Z,38.37
2019-02-09T01:52:56.144Z,39.23
2019-02-09T01:55:25.951Z,40.10
2019-02-09T01:57:54.763Z,43.13
2019-02-09T02:00:25.949Z,42.00
2019-02-09T02:02:54.991Z,36.63
2019-02-09T02:05:24.623Z,37.55
2019-02-09T02:07:54.031Z,40.65
2019-02-09T02:10:29.439Z,38.65
2019-02-09T02:12:58.645Z,42.17
2019-02-09T02:15:28.349Z,43.42
2019-02-09T02:17:57.294Z,40.83
2019-02-09T02:20:27.443Z,38.78
2019-02-09T02:22:56.439Z,38.78
2019-02-09T02:25:25.567Z,39.85
2019-02-09T02:27:54.554Z,36.68
2019-02-09T02:30:29.163Z,34.90
2019-02-09T02:32:58.214Z,36.00
2019-02-09T02:35:27.211Z,35.78
2019-02-09T02:37:56.398Z,38.42
2019-02-09T02:40:25.486Z,38.08
2019-02-09T02:42:54.715Z,39.10
2019-02-09T02:45:23.810Z,40.30
2019-02-09T02:48:01.854Z,40.58
2019-02-09T02:50:30.731Z,42.53
2019-02-09T02:52:59.711Z,40.85
2019-02-09T02:55:28.844Z,40.15
2019-02-09T02:57:57.905Z,40.33
2019-02-09T03:00:32.103Z,39.95
2019-02-09T03:03:00.026Z,39.80
2019-02-09T03:05:29.147Z,41.20
2019-02-09T03:07:58.325Z,39.00
2019-02-09T03:10:27.471Z,39.88
2019-02-09T03:12:56.519Z,40.00
2019-02-09T03:15:30.040Z,36.53
2019-02-09T03:17:59.075Z,38.35
2019-02-09T03:20:28.078Z,39.45
2019-02-09T03:22:57.013Z,39.92
2019-02-09T03:25:31.508Z,40.03
2019-02-09T03:28:00.521Z,42.83
2019-02-09T03:30:29.702Z,41.73
2019-02-09T03:32:58.788Z,45.45
2019-02-09T03:35:27.818Z,38.53
2019-02-09T03:37:56.797Z,38.40
2019-02-09T03:40:26.541Z,36.77
2019-02-09T03:42:55.605Z,38.85
2019-02-09T03:45:29.332Z,40.52
2019-02-09T03:47:58.562Z,38.43
2019-02-09T03:50:29.384Z,41.53
2019-02-09T03:52:58.465Z,39.23
2019-02-09T03:55:27.724Z,36.28
2019-02-09T03:57:57.030Z,35.80
2019-02-09T04:00:27.648Z,38.95
2019-02-09T04:02:56.728Z,45.33
2019-02-09T04:05:25.789Z,41.77
2019-02-09T04:07:55.285Z,44.80
2019-02-09T04:10:25.576Z,42.70
2019-02-09T04:12:54.648Z,42.45
2019-02-09T04:15:25.378Z,41.15
2019-02-09T04:17:54.719Z,40.88
2019-02-09T04:20:24.206Z,43.00
2019-02-09T04:22:53.789Z,40.88
2019-02-09T04:25:23.280Z,42.65
2019-02-09T04:27:52.472Z,40.65
2019-02-09T04:30:26.138Z,40.28
2019-02-09T04:32:55.288Z,37.67
2019-02-09T04:35:24.642Z,39.15
2019-02-09T04:37:53.917Z,34.00
2019-02-09T04:40:31.082Z,33.70
2019-02-09T04:43:00.267Z,31.02
2019-02-09T04:45:29.286Z,32.38
2019-02-09T04:47:58.333Z,31.77
2019-02-09T04:50:27.591Z,31.10
2019-02-09T04:52:56.661Z,30.85
2019-02-09T04:55:26.459Z,30.27
2019-02-09T04:57:55.843Z,30.17
2019-02-09T05:00:30.843Z,28.30
2019-02-09T05:03:00.281Z,30.62
2019-02-09T05:05:29.994Z,27.30
2019-02-09T05:07:59.051Z,29.35
2019-02-09T05:10:28.079Z,29.00
2019-02-09T05:12:57.144Z,28.02
2019-02-09T05:15:26.144Z,28.50
2019-02-09T05:17:55.138Z,30.32
2019-02-09T05:20:25.052Z,27.48
2019-02-09T05:22:54.766Z,30.60
2019-02-09T05:25:23.984Z,29.33
2019-02-09T05:27:53.038Z,29.35
2019-02-09T05:30:24.060Z,31.87
2019-02-09T05:32:53.908Z,33.95
2019-02-09T05:35:23.122Z,33.67
2019-02-09T05:37:53.159Z,31.02
2019-02-09T05:40:22.893Z,30.62
2019-02-09T05:42:51.954Z,29.65
2019-02-09T05:45:22.802Z,33.00
2019-02-09T05:47:52.116Z,31.50
2019-02-09T05:50:29.913Z,30.72
2019-02-09T05:53:18.462Z,29.93
2019-02-09T05:55:49.066Z,29.20
2019-02-09T05:58:35.019Z,29.20
2019-02-09T06:01:10.314Z,28.35
2019-02-09T06:04:01.365Z,28.00
2019-02-09T06:06:30.820Z,29.00
2019-02-09T06:08:59.731Z,27.27
2019-02-09T06:11:28.653Z,28.50
2019-02-09T06:13:57.668Z,29.27
2019-02-09T06:16:26.595Z,28.97
2019-02-09T06:18:55.596Z,28.17
2019-02-09T06:21:24.729Z,29.72
2019-02-09T06:23:53.652Z,32.33
2019-02-09T06:26:22.560Z,37.55
2019-02-09T06:28:51.435Z,35.80
2019-02-09T06:31:20.672Z,30.68
2019-02-09T06:33:49.653Z,29.02
2019-02-09T06:36:18.748Z,28.07
2019-02-09T06:38:48.068Z,28.43
2019-02-09T06:41:17.064Z,29.27
2019-02-09T06:43:45.977Z,34.85
2019-02-09T06:46:15.312Z,29.70
2019-02-09T06:48:44.523Z,30.80
2019-02-09T06:51:13.670Z,36.17
2019-02-09T06:53:42.591Z,29.00
2019-02-09T06:56:11.608Z,31.77
2019-02-09T06:58:40.960Z,31.00
2019-02-09T07:01:09.872Z,30.55
2019-02-09T07:03:38.788Z,29.12
2019-02-09T07:06:07.812Z,27.52
2019-02-09T07:08:36.747Z,28.85
2019-02-09T07:11:05.955Z,28.87
2019-02-09T07:13:41.448Z,31.45
2019-02-09T07:16:10.435Z,33.02
2019-02-09T07:18:39.452Z,29.57
2019-02-09T07:21:08.468Z,27.05
2019-02-09T07:23:37.520Z,29.12
2019-02-09T07:26:06.579Z,26.68
2019-02-09T07:28:35.537Z,25.75
2019-02-09T07:31:06.066Z,28.55
2019-02-09T07:33:35.260Z,29.72
2019-02-09T07:36:04.533Z,30.83
2019-02-09T07:38:33.540Z,28.55
2019-02-09T07:41:03.048Z,30.32
2019-02-09T07:43:31.989Z,32.40
2019-02-09T07:46:01.049Z,33.83
2019-02-09T07:48:30.130Z,31.75
2019-02-09T07:50:59.164Z,29.35
2019-02-09T07:53:27.996Z,30.57
2019-02-09T07:55:57.052Z,30.52
2019-02-09T07:58:26.156Z,29.18
2019-02-09T08:00:55.540Z,28.20
2019-02-09T08:03:24.731Z,26.80
2019-02-09T08:05:53.784Z,21.80
2019-02-09T08:08:22.777Z,19.52
2019-02-09T08:10:51.716Z,20.15
2019-02-09T08:13:26.848Z,19.23
2019-02-09T08:15:55.780Z,17.07
2019-02-09T08:18:24.714Z,18.53
2019-02-09T08:20:53.812Z,22.60
2019-02-09T08:23:22.810Z,23.10
2019-02-09T08:25:51.895Z,21.20
2019-02-09T08:28:20.940Z,21.70
2019-02-09T08:30:50.256Z,17.90
2019-02-09T08:33:19.208Z,18.37
2019-02-09T08:35:48.221Z,21.35
2019-02-09T08:38:17.573Z,21.95
2019-02-09T08:40:46.504Z,21.82
2019-02-09T08:43:16.958Z,21.82
2019-02-09T08:45:45.956Z,20.20
2019-02-09T08:48:14.983Z,20.70
2019-02-09T08:50:53.052Z,20.88
2019-02-09T08:53:22.679Z,14.78
2019-02-09T08:55:51.739Z,12.03
2019-02-09T08:58:20.701Z,10.40
2019-02-09T09:00:49.715Z,9.63
2019-02-09T09:03:18.564Z,10.45
2019-02-09T09:05:47.649Z,10.55
2019-02-09T09:08:17.004Z,9.48
2019-02-09T09:10:46.023Z,11.73
2019-02-09T09:13:15.000Z,9.90
2019-02-09T09:15:46.561Z,9.70
2019-02-09T09:18:15.587Z,10.70
2019-02-09T09:20:50.328Z,9.13
2019-02-09T09:23:19.343Z,9.55
2019-02-09T09:25:48.348Z,8.65
2019-02-09T09:28:17.435Z,8.93
2019-02-09T09:30:46.456Z,10.08
2019-02-09T09:33:15.513Z,8.53
2019-02-09T09:35:44.576Z,8.78
2019-02-09T09:38:13.606Z,8.10
2019-02-09T09:40:42.882Z,8.33
2019-02-09T09:43:12.209Z,9.50
2019-02-09T09:45:42.281Z,7.75
2019-02-09T09:48:13.093Z,8.98
2019-02-09T09:50:42.331Z,8.48
2019-02-09T09:53:11.354Z,7.67
2019-02-09T09:55:40.415Z,6.45
2019-02-09T09:58:09.789Z,7.60
2019-02-09T10:00:43.009Z,7.30
2019-02-09T10:03:12.035Z,7.40
2019-02-09T10:05:42.129Z,6.10
2019-02-09T10:08:11.200Z,7.15
2019-02-09T10:10:40.211Z,6.97
2019-02-09T10:13:09.252Z,7.47
2019-02-09T10:15:38.293Z,7.00
2019-02-09T10:18:07.295Z,6.50
2019-02-09T10:20:36.323Z,7.00
2019-02-09T10:23:05.652Z,7.67
2019-02-09T10:25:34.675Z,6.00
2019-02-09T10:28:04.064Z,9.10
2019-02-09T10:30:33.063Z,7.30
2019-02-09T10:33:01.992Z,7.50
2019-02-09T10:35:31.180Z,8.85
2019-02-09T10:38:00.259Z,8.40
2019-02-09T10:40:30.745Z,6.58
2019-02-09T10:42:59.819Z,10.40
2019-02-09T10:45:29.528Z,8.03
2019-02-09T10:47:59.059Z,10.38
2019-02-09T10:50:33.456Z,8.88
2019-02-09T10:53:02.424Z,8.63
2019-02-09T10:55:31.408Z,8.10
2019-02-09T10:58:00.411Z,11.05
2019-02-09T11:00:35.322Z,8.17
2019-02-09T11:03:04.992Z,7.72
2019-02-09T11:05:34.036Z,7.90
2019-02-09T11:08:03.192Z,9.63
2019-02-09T11:10:32.201Z,7.00
2019-02-09T11:13:01.148Z,9.75
2019-02-09T11:15:30.172Z,8.25
2019-02-09T11:17:59.153Z,9.88
2019-02-09T11:20:28.060Z,8.55
2019-02-09T11:22:57.076Z,10.32
2019-02-09T11:25:26.104Z,8.93
2019-02-09T11:27:55.297Z,9.13
2019-02-09T11:30:24.639Z,8.18
2019-02-09T11:33:01.733Z,9.60
2019-02-09T11:35:24.407Z,9.33
2019-02-09T11:37:53.431Z,7.20
2019-02-09T11:40:22.464Z,7.40
2019-02-09T11:42:51.789Z,8.80
2019-02-09T11:45:26.152Z,7.08
2019-02-09T11:47:55.477Z,7.00
2019-02-09T11:50:24.529Z,8.58
2019-02-09T11:52:53.964Z,9.65
2019-02-09T11:55:23.092Z,7.67
2019-02-09T11:57:52.120Z,7.72
2019-02-09T12:00:26.187Z,9.08
2019-02-09T12:03:02.898Z,6.27
2019-02-09T12:05:25.890Z,9.45
2019-02-09T12:07:55.292Z,11.08
2019-02-09T12:10:24.705Z,8.43
2019-02-09T12:12:53.740Z,7.80
2019-02-09T12:15:28.581Z,7.90
2019-02-09T12:17:57.634Z,8.63
2019-02-09T12:20:26.633Z,10.05
2019-02-09T12:22:55.709Z,9.98
2019-02-09T12:25:26.733Z,7.53
2019-02-09T12:27:55.743Z,8.18
2019-02-09T12:30:26.738Z,9.53
2019-02-09T12:32:55.739Z,12.18
2019-02-09T12:35:24.756Z,7.75
2019-02-09T12:37:53.678Z,8.25
2019-02-09T12:40:27.566Z,8.50
2019-02-09T12:42:56.681Z,7.97
2019-02-09T12:45:25.664Z,10.07
2019-02-09T12:47:54.609Z,10.68
2019-02-09T12:50:24.603Z,6.45
2019-02-09T12:52:53.592Z,9.70
2019-02-09T12:55:22.604Z,7.92
2019-02-09T12:57:51.604Z,7.40
2019-02-09T13:00:23.570Z,7.83
2019-02-09T13:02:53.006Z,9.18
2019-02-09T13:05:22.012Z,8.23
2019-02-09T13:07:51.078Z,9.75
2019-02-09T13:10:20.426Z,11.95
2019-02-09T13:12:49.428Z,10.05
2019-02-09T13:15:21.340Z,11.67
2019-02-09T13:17:50.339Z,10.08
2019-02-09T13:20:21.515Z,10.38
2019-02-09T13:22:50.719Z,7.45
2019-02-09T13:25:20.179Z,8.60
2019-02-09T13:27:49.391Z,8.30
2019-02-09T13:30:21.923Z,9.03
2019-02-09T13:32:50.947Z,10.48
2019-02-09T13:35:19.932Z,9.23
2019-02-09T13:37:48.991Z,10.83
2019-02-09T13:40:19.212Z,11.03
2019-02-09T13:42:48.210Z,12.85
2019-02-09T13:45:20.825Z,8.33
2019-02-09T13:47:49.796Z,9.65
2019-02-09T13:50:19.021Z,10.03
2019-02-09T13:52:48.084Z,13.15
2019-02-09T13:55:17.020Z,11.50
2019-02-09T13:57:45.988Z,11.88
2019-02-09T14:00:17.823Z,11.10
2019-02-09T14:02:46.928Z,11.38
2019-02-09T14:05:15.968Z,12.13
2019-02-09T14:07:44.948Z,9.68
2019-02-09T14:10:16.164Z,11.10
2019-02-09T14:12:45.544Z,11.15
2019-02-09T14:15:17.580Z,12.73
2019-02-09T14:17:46.980Z,11.50
2019-02-09T14:20:16.216Z,9.75
2019-02-09T14:22:45.264Z,13.62
2019-02-09T14:25:14.909Z,12.43
2019-02-09T14:27:43.983Z,12.25
2019-02-09T14:30:19.975Z,11.43
2019-02-09T14:32:49.063Z,12.10
2019-02-09T14:35:18.139Z,11.50
2019-02-09T14:37:47.253Z,12.67
2019-02-09T14:40:19.098Z,10.90
2019-02-09T14:42:48.136Z,14.75
2019-02-09T14:45:22.625Z,12.80
2019-02-09T14:47:51.659Z,13.77
2019-02-09T14:50:20.808Z,8.83
2019-02-09T14:52:49.842Z,12.10
2019-02-09T14:55:22.196Z,8.80
2019-02-09T14:57:51.149Z,7.72
2019-02-09T15:00:22.357Z,8.68
2019-02-09T15:02:53.900Z,8.40
2019-02-09T15:05:22.248Z,8.20
2019-02-09T15:07:51.306Z,10.10
2019-02-09T15:10:20.373Z,8.43
2019-02-09T15:12:49.721Z,9.43
2019-02-09T15:15:27.424Z,8.20
2019-02-09T15:17:56.451Z,13.03
2019-02-09T15:20:31.272Z,8.63
2019-02-09T15:23:00.320Z,9.85
2019-02-09T15:25:29.382Z,11.33
2019-02-09T15:27:58.353Z,7.05
2019-02-09T15:30:28.372Z,11.20
2019-02-09T15:32:57.456Z,9.00
2019-02-09T15:35:26.499Z,9.75
2019-02-09T15:37:55.485Z,8.80
2019-02-09T15:40:24.483Z,9.68
2019-02-09T15:42:53.565Z,6.85
2019-02-09T15:45:22.564Z,12.82
2019-02-09T15:47:51.683Z,11.20
2019-02-09T15:50:20.818Z,11.55
2019-02-09T15:52:49.981Z,8.40
2019-02-09T15:55:19.919Z,8.45
2019-02-09T15:57:49.060Z,11.33
2019-02-09T16:00:28.569Z,10.03
2019-02-09T16:02:57.652Z,9.30
2019-02-09T16:05:26.684Z,9.53
2019-02-09T16:07:55.708Z,9.23
2019-02-09T16:10:25.160Z,10.63
2019-02-09T16:12:54.215Z,8.90
2019-02-09T16:15:25.162Z,10.28
2019-02-09T16:17:54.260Z,10.77
2019-02-09T16:20:24.004Z,12.15
2019-02-09T16:22:53.049Z,10.82
2019-02-09T16:25:22.246Z,13.13
2019-02-09T16:27:51.181Z,11.93
2019-02-09T16:30:21.978Z,11.85
2019-02-09T16:32:51.095Z,11.43
2019-02-09T16:35:21.819Z,14.00
2019-02-09T16:37:51.471Z,12.23
2019-02-09T16:40:22.748Z,12.03
2019-02-09T16:42:51.812Z,15.93
2019-02-09T16:45:34.024Z,13.05
2019-02-09T16:48:03.147Z,16.50
2019-02-09T16:50:32.171Z,13.48
2019-02-09T16:53:01.193Z,15.63
2019-02-09T16:55:30.193Z,16.23
2019-02-09T16:57:59.291Z,15.05
2019-02-09T17:00:34.460Z,15.23
2019-02-09T17:03:04.703Z,22.37
2019-02-09T17:05:33.685Z,16.27
2019-02-09T17:08:02.688Z,15.15
2019-02-09T17:10:31.728Z,16.35
2019-02-09T17:13:00.733Z,16.07
2019-02-09T17:15:29.834Z,18.45
2019-02-09T17:17:58.872Z,16.55
2019-02-09T17:20:27.893Z,17.00
2019-02-09T17:22:56.905Z,18.17
2019-02-09T17:25:26.371Z,16.97
2019-02-09T17:27:56.009Z,17.37
2019-02-09T17:30:26.574Z,19.85
2019-02-09T17:32:55.826Z,17.43
2019-02-09T17:35:26.868Z,17.80
2019-02-09T17:37:56.062Z,18.57
2019-02-09T17:40:29.255Z,17.77
2019-02-09T17:42:58.364Z,17.62
2019-02-09T17:45:33.767Z,16.20
2019-02-09T17:48:02.808Z,16.82
2019-02-09T17:50:31.856Z,18.02
2019-02-09T17:53:00.805Z,16.40
2019-02-09T17:55:29.798Z,13.78
2019-02-09T17:57:58.810Z,16.50
2019-02-09T18:00:37.048Z,16.00
2019-02-09T18:03:06.084Z,16.77
2019-02-09T18:05:35.076Z,15.93
2019-02-09T18:08:04.491Z,15.43
2019-02-09T18:10:33.513Z,17.57
2019-02-09T18:13:02.488Z,16.73
2019-02-09T18:15:31.531Z,13.60
2019-02-09T18:18:00.466Z,15.03
2019-02-09T18:20:29.436Z,13.83
2019-02-09T18:22:58.458Z,13.40
2019-02-09T18:25:27.483Z,15.05
2019-02-09T18:27:58.367Z,15.83
2019-02-09T18:30:27.452Z,16.30
2019-02-09T18:32:56.490Z,15.30
2019-02-09T18:35:25.508Z,16.77
2019-02-09T18:37:54.548Z,15.35
2019-02-09T18:40:23.590Z,16.77
2019-02-09T18:42:52.541Z,15.63
2019-02-09T18:45:23.605Z,15.63
2019-02-09T18:47:52.743Z,15.48
2019-02-09T18:50:23.635Z,16.48
2019-02-09T18:52:52.680Z,16.20
2019-02-09T18:55:22.855Z,15.28
2019-02-09T18:57:51.853Z,15.88
2019-02-09T19:00:23.403Z,15.23
2019-02-09T19:02:52.549Z,15.60
2019-02-09T19:05:21.574Z,14.17
2019-02-09T19:07:50.616Z,15.88
2019-02-09T19:10:21.536Z,15.03
2019-02-09T19:12:50.543Z,15.75
2019-02-09T19:15:20.165Z,16.42
2019-02-09T19:17:49.207Z,16.15
2019-02-09T19:20:23.554Z,16.85
2019-02-09T19:22:52.755Z,14.35
2019-02-09T19:25:22.284Z,14.95
2019-02-09T19:27:51.312Z,16.23
2019-02-09T19:30:21.386Z,16.77
2019-02-09T19:32:51.004Z,14.47
2019-02-09T19:35:20.008Z,15.73
2019-02-09T19:37:49.053Z,14.10
2019-02-09T19:40:18.312Z,14.68
2019-02-09T19:42:48.172Z,15.15
2019-02-09T19:45:22.144Z,13.68
2019-02-09T19:47:51.061Z,15.43
2019-02-09T19:50:20.105Z,16.12
2019-02-09T19:52:49.132Z,15.60
2019-02-09T19:55:20.187Z,14.87
2019-02-09T19:57:49.167Z,13.83
2019-02-09T20:00:20.893Z,13.20
2019-02-09T20:02:49.972Z,13.13
2019-02-09T20:05:20.076Z,14.65
2019-02-09T20:07:49.212Z,15.55
2019-02-09T20:10:21.604Z,18.45
2019-02-09T20:12:50.612Z,17.00
2019-02-09T20:15:19.552Z,18.20
2019-02-09T20:17:48.533Z,13.75
2019-02-09T20:20:17.689Z,14.65
2019-02-09T20:22:46.778Z,14.83
2019-02-09T20:25:17.810Z,15.45
2019-02-09T20:27:46.848Z,16.42
2019-02-09T20:30:21.209Z,15.58
2019-02-09T20:32:50.332Z,18.87
2019-02-09T20:35:19.574Z,16.05
2019-02-09T20:37:49.084Z,18.15
2019-02-09T20:40:31.169Z,16.42
2019-02-09T20:43:02.007Z,18.92
2019-02-09T20:45:30.640Z,18.90
2019-02-09T20:47:59.629Z,18.00
2019-02-09T20:50:28.644Z,17.25
2019-02-09T20:52:57.676Z,13.48
2019-02-09T20:55:26.688Z,14.00
2019-02-09T20:57:55.708Z,15.43
2019-02-09T21:00:25.671Z,16.52
2019-02-09T21:02:54.664Z,17.13
2019-02-09T21:05:24.091Z,15.75
2019-02-09T21:07:53.380Z,15.55
2019-02-09T21:10:24.164Z,14.73
2019-02-09T21:12:54.461Z,15.72
2019-02-09T21:15:24.716Z,14.10
2019-02-09T21:17:53.976Z,14.23
2019-02-09T21:20:22.948Z,14.87
2019-02-09T21:22:52.022Z,17.25
2019-02-09T21:25:29.151Z,18.60
2019-02-09T21:27:58.446Z,15.80
2019-02-09T21:30:27.993Z,15.83
2019-02-09T21:32:57.195Z,15.08
2019-02-09T21:35:26.263Z,16.62
2019-02-09T21:37:55.254Z,14.30
2019-02-09T21:40:25.597Z,17.00
2019-02-09T21:42:54.914Z,15.88
2019-02-09T21:45:23.970Z,15.78
2019-02-09T21:47:53.882Z,15.88
2019-02-09T21:50:25.124Z,19.12
2019-02-09T21:52:54.481Z,18.52
2019-02-09T21:55:24.422Z,18.02
2019-02-09T21:57:53.464Z,14.35
2019-02-09T22:00:27.365Z,14.15
2019-02-09T22:02:56.424Z,14.38
2019-02-09T22:05:25.481Z,12.63
2019-02-09T22:07:54.477Z,13.03
2019-02-09T22:10:29.215Z,13.20
2019-02-09T22:12:54.355Z,11.55
2019-02-09T22:15:24.905Z,15.75
2019-02-09T22:17:54.392Z,13.45
2019-02-09T22:20:23.304Z,14.40
2019-02-09T22:22:52.600Z,16.07
2019-02-09T22:25:22.616Z,13.90
2019-02-09T22:27:52.412Z,15.50
2019-02-09T22:30:23.692Z,14.65
2019-02-09T22:32:52.853Z,12.18
2019-02-09T22:35:22.134Z,12.73
2019-02-09T22:37:51.161Z,11.10
2019-02-09T22:40:22.184Z,10.70
2019-02-09T22:42:51.192Z,12.18
2019-02-09T22:45:21.096Z,12.43
2019-02-09T22:47:50.576Z,12.98
2019-02-09T22:50:24.733Z,12.40
2019-02-09T22:52:53.784Z,11.30
2019-02-09T22:55:22.849Z,12.10
2019-02-09T22:57:51.843Z,11.88
2019-02-09T23:00:43.720Z,10.08
2019-02-09T23:03:12.754Z,12.30
2019-02-09T23:06:21.821Z,13.75
2019-02-09T23:08:51.302Z,13.08
2019-02-09T23:11:20.343Z,13.05
2019-02-09T23:13:49.469Z,12.93
2019-02-09T23:16:21.567Z,13.98
2019-02-09T23:18:50.672Z,14.47
2019-02-09T23:21:20.820Z,14.50
2019-02-09T23:23:49.792Z,14.68
2019-02-09T23:26:18.833Z,13.05
2019-02-09T23:28:48.380Z,13.08
2019-02-09T23:31:17.386Z,13.00
2019-02-09T23:33:46.305Z,14.77
2019-02-09T23:36:16.605Z,14.75
2019-02-09T23:38:45.827Z,13.40
2019-02-09T23:41:14.827Z,14.80
2019-02-09T23:43:43.741Z,12.58
2019-02-09T23:46:13.120Z,12.68
2019-02-09T23:48:42.574Z,13.22
2019-02-09T23:51:11.902Z,13.20
2019-02-09T23:53:40.752Z,14.65
2019-02-09T23:56:09.672Z,12.10
2019-02-09T23:58:38.624Z,12.95
